sensor_id;sensor_type;location;lat;lon;timestamp;P1;durP1;ratioP1;P2;durP2;ratioP2
73672;SDS011;61972;19.480;-99.240;2022-12-07T00:01:29;6.13;;;4.00;;
73672;SDS011;61972;19.480;-99.240;2022-12-07T00:04:02;6.23;;;3.63;;
73672;SDS011;61972;19.480;-99.240;2022-12-07T00:06:30;6.15;;;3.50;;
73672;SDS011;61972;19.480;-99.240;2022-12-07T00:09:01;6.13;;;3.33;;
73672;SDS011;61972;19.480;-99.240;2022-12-07T00:11:28;6.13;;;3.50;;
73672;SDS011;61972;19.480;-99.240;2022-12-07T00:13:55;6.28;;;3.90;;
73672;SDS011;61972;19.480;-99.240;2022-12-07T00:16:23;6.30;;;4.00;;
73672;SDS011;61972;19.480;-99.240;2022-12-07T00:18:51;6.63;;;3.83;;
73672;SDS011;61972;19.480;-99.240;2022-12-07T00:21:19;6.63;;;4.00;;
73672;SDS011;61972;19.480;-99.240;2022-12-07T00:23:47;8.23;;;4.13;;
73672;SDS011;61972;19.480;-99.240;2022-12-07T00:26:15;5.18;;;3.42;;
73672;SDS011;61972;19.480;-99.240;2022-12-07T00:28:46;16.57;;;5.83;;
73672;SDS011;61972;19.480;-99.240;2022-12-07T00:31:14;44.45;;;15.57;;
73672;SDS011;61972;19.480;-99.240;2022-12-07T00:33:41;35.67;;;16.23;;
73672;SDS011;61972;19.480;-99.240;2022-12-07T00:36:12;33.92;;;14.50;;
73672;SDS011;61972;19.480;-99.240;2022-12-07T00:38:40;33.65;;;14.48;;
73672;SDS011;61972;19.480;-99.240;2022-12-07T00:41:09;26.77;;;13.30;;
73672;SDS011;61972;19.480;-99.240;2022-12-07T00:43:37;29.38;;;13.98;;
73672;SDS011;61972;19.480;-99.240;2022-12-07T00:46:04;26.80;;;13.00;;
73672;SDS011;61972;19.480;-99.240;2022-12-07T00:48:31;27.83;;;12.27;;
73672;SDS011;61972;19.480;-99.240;2022-12-07T00:50:57;24.35;;;11.98;;
73672;SDS011;61972;19.480;-99.240;2022-12-07T00:53:23;25.47;;;11.53;;
73672;SDS011;61972;19.480;-99.240;2022-12-07T00:55:50;26.55;;;10.77;;
73672;SDS011;61972;19.480;-99.240;2022-12-07T00:58:18;19.73;;;10.20;;
73672;SDS011;61972;19.480;-99.240;2022-12-07T01:00:44;20.77;;;9.85;;
73672;SDS011;61972;19.480;-99.240;2022-12-07T01:03:11;18.55;;;9.43;;
73672;SDS011;61972;19.480;-99.240;2022-12-07T01:05:39;20.57;;;9.07;;
73672;SDS011;61972;19.480;-99.240;2022-12-07T01:08:05;25.60;;;9.10;;
73672;SDS011;61972;19.480;-99.240;2022-12-07T01:10:32;17.83;;;9.07;;
73672;SDS011;61972;19.480;-99.240;2022-12-07T01:12:58;18.80;;;9.20;;
73672;SDS011;61972;19.480;-99.240;2022-12-07T01:15:27;22.58;;;8.90;;
73672;SDS011;61972;19.480;-99.240;2022-12-07T01:17:53;18.67;;;8.30;;
73672;SDS011;61972;19.480;-99.240;2022-12-07T01:20:19;17.30;;;8.65;;
73672;SDS011;61972;19.480;-99.240;2022-12-07T01:22:46;15.25;;;8.27;;
73672;SDS011;61972;19.480;-99.240;2022-12-07T01:25:12;17.10;;;8.40;;
73672;SDS011;61972;19.480;-99.240;2022-12-07T01:27:38;18.33;;;8.88;;
73672;SDS011;61972;19.480;-99.240;2022-12-07T01:30:05;20.30;;;8.70;;
73672;SDS011;61972;19.480;-99.240;2022-12-07T01:32:33;13.32;;;8.40;;
73672;SDS011;61972;19.480;-99.240;2022-12-07T01:34:59;14.88;;;8.68;;
73672;SDS011;61972;19.480;-99.240;2022-12-07T01:37:25;18.80;;;9.10;;
73672;SDS011;61972;19.480;-99.240;2022-12-07T01:39:51;19.35;;;9.05;;
73672;SDS011;61972;19.480;-99.240;2022-12-07T01:42:18;16.57;;;7.77;;
73672;SDS011;61972;19.480;-99.240;2022-12-07T01:47:51;18.77;;;8.00;;
73672;SDS011;61972;19.480;-99.240;2022-12-07T01:50:21;16.65;;;8.55;;
73672;SDS011;61972;19.480;-99.240;2022-12-07T01:52:53;21.15;;;8.40;;
73672;SDS011;61972;19.480;-99.240;2022-12-07T01:55:23;16.77;;;7.97;;
73672;SDS011;61972;19.480;-99.240;2022-12-07T01:57:50;15.20;;;8.20;;
73672;SDS011;61972;19.480;-99.240;2022-12-07T02:00:19;15.50;;;7.75;;
73672;SDS011;61972;19.480;-99.240;2022-12-07T02:02:47;13.65;;;7.82;;
73672;SDS011;61972;19.480;-99.240;2022-12-07T02:05:37;14.48;;;7.45;;
73672;SDS011;61972;19.480;-99.240;2022-12-07T02:08:05;17.70;;;7.53;;
73672;SDS011;61972;19.480;-99.240;2022-12-07T02:10:32;14.10;;;7.25;;
73672;SDS011;61972;19.480;-99.240;2022-12-07T02:13:10;17.52;;;7.43;;
73672;SDS011;61972;19.480;-99.240;2022-12-07T02:21:21;13.50;;;7.60;;
73672;SDS011;61972;19.480;-99.240;2022-12-07T02:26:43;14.10;;;7.60;;
73672;SDS011;61972;19.480;-99.240;2022-12-07T02:29:39;14.85;;;7.82;;
73672;SDS011;61972;19.480;-99.240;2022-12-07T02:32:32;13.90;;;7.03;;
73672;SDS011;61972;19.480;-99.240;2022-12-07T02:38:14;12.23;;;7.38;;
73672;SDS011;61972;19.480;-99.240;2022-12-07T02:43:45;15.07;;;7.55;;
73672;SDS011;61972;19.480;-99.240;2022-12-07T02:46:17;13.85;;;7.32;;
73672;SDS011;61972;19.480;-99.240;2022-12-07T02:48:48;13.73;;;7.53;;
73672;SDS011;61972;19.480;-99.240;2022-12-07T02:51:19;13.15;;;6.88;;
73672;SDS011;61972;19.480;-99.240;2022-12-07T02:53:47;12.15;;;7.00;;
73672;SDS011;61972;19.480;-99.240;2022-12-07T03:04:20;14.63;;;7.00;;
73672;SDS011;61972;19.480;-99.240;2022-12-07T03:07:06;13.20;;;7.05;;
73672;SDS011;61972;19.480;-99.240;2022-12-07T03:09:45;11.30;;;6.80;;
73672;SDS011;61972;19.480;-99.240;2022-12-07T03:12:18;12.18;;;6.95;;
73672;SDS011;61972;19.480;-99.240;2022-12-07T03:14:54;20.67;;;7.07;;
73672;SDS011;61972;19.480;-99.240;2022-12-07T03:17:36;14.10;;;6.80;;
73672;SDS011;61972;19.480;-99.240;2022-12-07T03:20:05;16.50;;;7.13;;
73672;SDS011;61972;19.480;-99.240;2022-12-07T03:22:35;10.85;;;6.28;;
73672;SDS011;61972;19.480;-99.240;2022-12-07T03:25:07;11.85;;;6.55;;
73672;SDS011;61972;19.480;-99.240;2022-12-07T03:27:53;12.80;;;7.00;;
73672;SDS011;61972;19.480;-99.240;2022-12-07T03:30:29;15.65;;;7.22;;
73672;SDS011;61972;19.480;-99.240;2022-12-07T03:33:07;12.90;;;6.65;;
73672;SDS011;61972;19.480;-99.240;2022-12-07T03:35:43;15.90;;;6.75;;
73672;SDS011;61972;19.480;-99.240;2022-12-07T03:38:22;12.05;;;6.60;;
73672;SDS011;61972;19.480;-99.240;2022-12-07T03:41:06;13.20;;;6.77;;
73672;SDS011;61972;19.480;-99.240;2022-12-07T03:43:37;14.80;;;6.53;;
73672;SDS011;61972;19.480;-99.240;2022-12-07T03:46:46;17.67;;;6.72;;
73672;SDS011;61972;19.480;-99.240;2022-12-07T03:51:48;13.30;;;6.43;;
73672;SDS011;61972;19.480;-99.240;2022-12-07T03:54:34;12.47;;;6.97;;
73672;SDS011;61972;19.480;-99.240;2022-12-07T03:57:14;17.15;;;5.93;;
73672;SDS011;61972;19.480;-99.240;2022-12-07T03:59:43;11.75;;;6.28;;
73672;SDS011;61972;19.480;-99.240;2022-12-07T04:02:10;13.68;;;6.38;;
73672;SDS011;61972;19.480;-99.240;2022-12-07T04:04:38;14.13;;;6.38;;
73672;SDS011;61972;19.480;-99.240;2022-12-07T04:07:04;9.40;;;5.50;;
73672;SDS011;61972;19.480;-99.240;2022-12-07T04:09:31;11.25;;;6.05;;
73672;SDS011;61972;19.480;-99.240;2022-12-07T04:11:57;14.70;;;6.13;;
73672;SDS011;61972;19.480;-99.240;2022-12-07T04:14:23;22.30;;;6.15;;
73672;SDS011;61972;19.480;-99.240;2022-12-07T04:16:54;16.25;;;5.93;;
73672;SDS011;61972;19.480;-99.240;2022-12-07T04:19:28;21.87;;;6.20;;
73672;SDS011;61972;19.480;-99.240;2022-12-07T04:21:57;16.63;;;6.80;;
73672;SDS011;61972;19.480;-99.240;2022-12-07T04:24:24;28.40;;;8.88;;
73672;SDS011;61972;19.480;-99.240;2022-12-07T04:26:51;26.42;;;8.25;;
73672;SDS011;61972;19.480;-99.240;2022-12-07T04:29:17;30.52;;;10.77;;
73672;SDS011;61972;19.480;-99.240;2022-12-07T04:31:44;29.77;;;11.13;;
73672;SDS011;61972;19.480;-99.240;2022-12-07T04:34:11;32.20;;;11.68;;
73672;SDS011;61972;19.480;-99.240;2022-12-07T04:36:38;34.28;;;12.15;;
73672;SDS011;61972;19.480;-99.240;2022-12-07T04:39:05;33.10;;;11.13;;
73672;SDS011;61972;19.480;-99.240;2022-12-07T04:41:33;35.00;;;11.63;;
73672;SDS011;61972;19.480;-99.240;2022-12-07T04:44:00;27.03;;;11.37;;
73672;SDS011;61972;19.480;-99.240;2022-12-07T04:46:29;28.38;;;9.85;;
73672;SDS011;61972;19.480;-99.240;2022-12-07T04:48:56;23.35;;;9.88;;
73672;SDS011;61972;19.480;-99.240;2022-12-07T04:51:26;25.13;;;8.82;;
73672;SDS011;61972;19.480;-99.240;2022-12-07T04:53:54;23.08;;;8.73;;
73672;SDS011;61972;19.480;-99.240;2022-12-07T04:56:21;24.30;;;9.13;;
73672;SDS011;61972;19.480;-99.240;2022-12-07T04:58:49;22.48;;;9.35;;
73672;SDS011;61972;19.480;-99.240;2022-12-07T05:01:16;18.60;;;8.43;;
73672;SDS011;61972;19.480;-99.240;2022-12-07T05:03:43;19.90;;;8.68;;
73672;SDS011;61972;19.480;-99.240;2022-12-07T05:06:10;19.95;;;8.60;;
73672;SDS011;61972;19.480;-99.240;2022-12-07T05:08:37;16.43;;;8.50;;
73672;SDS011;61972;19.480;-99.240;2022-12-07T05:11:04;18.63;;;7.65;;
73672;SDS011;61972;19.480;-99.240;2022-12-07T05:13:32;18.08;;;8.27;;
73672;SDS011;61972;19.480;-99.240;2022-12-07T05:15:59;17.35;;;8.07;;
73672;SDS011;61972;19.480;-99.240;2022-12-07T05:18:25;15.20;;;8.60;;
73672;SDS011;61972;19.480;-99.240;2022-12-07T05:20:51;16.10;;;8.57;;
73672;SDS011;61972;19.480;-99.240;2022-12-07T05:23:18;18.25;;;8.60;;
73672;SDS011;61972;19.480;-99.240;2022-12-07T05:25:44;19.05;;;9.25;;
73672;SDS011;61972;19.480;-99.240;2022-12-07T05:28:11;25.88;;;9.15;;
73672;SDS011;61972;19.480;-99.240;2022-12-07T05:30:38;20.45;;;9.23;;
73672;SDS011;61972;19.480;-99.240;2022-12-07T05:33:04;18.93;;;9.03;;
73672;SDS011;61972;19.480;-99.240;2022-12-07T05:35:30;23.73;;;9.48;;
73672;SDS011;61972;19.480;-99.240;2022-12-07T05:37:56;16.95;;;9.00;;
73672;SDS011;61972;19.480;-99.240;2022-12-07T05:40:23;19.77;;;9.50;;
73672;SDS011;61972;19.480;-99.240;2022-12-07T05:42:49;19.17;;;9.02;;
73672;SDS011;61972;19.480;-99.240;2022-12-07T05:45:15;22.07;;;8.97;;
73672;SDS011;61972;19.480;-99.240;2022-12-07T05:47:42;17.58;;;9.43;;
73672;SDS011;61972;19.480;-99.240;2022-12-07T05:50:08;18.77;;;8.68;;
73672;SDS011;61972;19.480;-99.240;2022-12-07T05:52:34;15.32;;;8.93;;
73672;SDS011;61972;19.480;-99.240;2022-12-07T05:55:00;17.02;;;9.52;;
73672;SDS011;61972;19.480;-99.240;2022-12-07T05:57:26;19.50;;;9.60;;
73672;SDS011;61972;19.480;-99.240;2022-12-07T05:59:52;19.13;;;10.63;;
73672;SDS011;61972;19.480;-99.240;2022-12-07T06:02:18;18.38;;;10.25;;
73672;SDS011;61972;19.480;-99.240;2022-12-07T06:04:45;16.05;;;10.05;;
73672;SDS011;61972;19.480;-99.240;2022-12-07T06:07:13;22.40;;;11.80;;
73672;SDS011;61972;19.480;-99.240;2022-12-07T06:09:40;20.77;;;11.10;;
73672;SDS011;61972;19.480;-99.240;2022-12-07T06:12:06;19.50;;;10.55;;
73672;SDS011;61972;19.480;-99.240;2022-12-07T06:20:46;16.00;;;8.43;;
73672;SDS011;61972;19.480;-99.240;2022-12-07T06:23:12;14.47;;;8.60;;
73672;SDS011;61972;19.480;-99.240;2022-12-07T06:25:38;15.60;;;8.35;;
73672;SDS011;61972;19.480;-99.240;2022-12-07T06:28:04;17.17;;;8.43;;
73672;SDS011;61972;19.480;-99.240;2022-12-07T06:30:30;14.23;;;7.72;;
73672;SDS011;61972;19.480;-99.240;2022-12-07T06:32:56;14.23;;;8.13;;
73672;SDS011;61972;19.480;-99.240;2022-12-07T06:35:22;12.33;;;7.83;;
73672;SDS011;61972;19.480;-99.240;2022-12-07T06:37:48;17.52;;;7.93;;
73672;SDS011;61972;19.480;-99.240;2022-12-07T06:40:14;14.20;;;7.22;;
73672;SDS011;61972;19.480;-99.240;2022-12-07T06:42:40;13.75;;;7.47;;
73672;SDS011;61972;19.480;-99.240;2022-12-07T06:45:07;11.43;;;6.93;;
73672;SDS011;61972;19.480;-99.240;2022-12-07T06:47:33;13.37;;;7.43;;
73672;SDS011;61972;19.480;-99.240;2022-12-07T06:49:59;18.92;;;7.53;;
73672;SDS011;61972;19.480;-99.240;2022-12-07T06:52:25;12.32;;;6.93;;
73672;SDS011;61972;19.480;-99.240;2022-12-07T06:54:51;11.63;;;7.25;;
73672;SDS011;61972;19.480;-99.240;2022-12-07T06:57:18;13.32;;;7.00;;
73672;SDS011;61972;19.480;-99.240;2022-12-07T06:59:45;15.87;;;7.00;;
73672;SDS011;61972;19.480;-99.240;2022-12-07T07:02:11;13.88;;;6.18;;
73672;SDS011;61972;19.480;-99.240;2022-12-07T07:04:37;12.90;;;6.90;;
73672;SDS011;61972;19.480;-99.240;2022-12-07T07:07:03;11.32;;;6.05;;
73672;SDS011;61972;19.480;-99.240;2022-12-07T07:09:30;12.43;;;6.30;;
73672;SDS011;61972;19.480;-99.240;2022-12-07T07:11:57;10.30;;;6.00;;
73672;SDS011;61972;19.480;-99.240;2022-12-07T07:14:23;10.00;;;5.95;;
73672;SDS011;61972;19.480;-99.240;2022-12-07T07:16:49;10.80;;;6.10;;
73672;SDS011;61972;19.480;-99.240;2022-12-07T07:19:16;8.82;;;5.70;;
73672;SDS011;61972;19.480;-99.240;2022-12-07T07:21:42;10.23;;;5.72;;
73672;SDS011;61972;19.480;-99.240;2022-12-07T07:24:08;9.83;;;6.00;;
73672;SDS011;61972;19.480;-99.240;2022-12-07T07:26:35;9.15;;;5.90;;
73672;SDS011;61972;19.480;-99.240;2022-12-07T07:29:01;8.73;;;5.70;;
73672;SDS011;61972;19.480;-99.240;2022-12-07T07:31:27;9.95;;;5.90;;
73672;SDS011;61972;19.480;-99.240;2022-12-07T07:33:53;8.73;;;4.93;;
73672;SDS011;61972;19.480;-99.240;2022-12-07T07:36:19;8.67;;;5.50;;
73672;SDS011;61972;19.480;-99.240;2022-12-07T07:38:46;9.55;;;5.20;;
73672;SDS011;61972;19.480;-99.240;2022-12-07T07:41:12;10.02;;;4.97;;
73672;SDS011;61972;19.480;-99.240;2022-12-07T07:43:38;8.10;;;4.97;;
73672;SDS011;61972;19.480;-99.240;2022-12-07T07:46:04;8.65;;;4.82;;
73672;SDS011;61972;19.480;-99.240;2022-12-07T07:48:30;8.77;;;4.70;;
73672;SDS011;61972;19.480;-99.240;2022-12-07T07:50:56;9.05;;;4.80;;
73672;SDS011;61972;19.480;-99.240;2022-12-07T07:53:22;9.18;;;4.53;;
73672;SDS011;61972;19.480;-99.240;2022-12-07T07:55:52;8.77;;;5.35;;
73672;SDS011;61972;19.480;-99.240;2022-12-07T07:58:18;8.55;;;4.80;;
73672;SDS011;61972;19.480;-99.240;2022-12-07T08:00:45;8.50;;;5.00;;
73672;SDS011;61972;19.480;-99.240;2022-12-07T08:03:12;8.88;;;4.63;;
73672;SDS011;61972;19.480;-99.240;2022-12-07T08:05:38;7.85;;;4.57;;
73672;SDS011;61972;19.480;-99.240;2022-12-07T08:08:04;9.60;;;4.28;;
73672;SDS011;61972;19.480;-99.240;2022-12-07T08:10:30;9.23;;;4.70;;
73672;SDS011;61972;19.480;-99.240;2022-12-07T08:13:00;8.80;;;4.50;;
73672;SDS011;61972;19.480;-99.240;2022-12-07T08:15:36;6.70;;;4.28;;
73672;SDS011;61972;19.480;-99.240;2022-12-07T08:18:03;8.00;;;4.20;;
73672;SDS011;61972;19.480;-99.240;2022-12-07T08:20:30;7.32;;;4.50;;
73672;SDS011;61972;19.480;-99.240;2022-12-07T08:22:58;8.68;;;4.40;;
73672;SDS011;61972;19.480;-99.240;2022-12-07T08:25:24;7.30;;;4.80;;
73672;SDS011;61972;19.480;-99.240;2022-12-07T08:27:51;7.80;;;4.70;;
73672;SDS011;61972;19.480;-99.240;2022-12-07T08:30:17;8.95;;;4.60;;
73672;SDS011;61972;19.480;-99.240;2022-12-07T08:32:45;10.20;;;4.60;;
73672;SDS011;61972;19.480;-99.240;2022-12-07T08:35:11;7.90;;;5.00;;
73672;SDS011;61972;19.480;-99.240;2022-12-07T08:37:38;8.13;;;4.30;;
73672;SDS011;61972;19.480;-99.240;2022-12-07T08:40:05;6.90;;;4.63;;
73672;SDS011;61972;19.480;-99.240;2022-12-07T08:42:33;8.13;;;4.90;;
73672;SDS011;61972;19.480;-99.240;2022-12-07T08:45:06;8.10;;;4.65;;
73672;SDS011;61972;19.480;-99.240;2022-12-07T08:47:34;7.85;;;4.32;;
73672;SDS011;61972;19.480;-99.240;2022-12-07T08:50:07;10.03;;;4.83;;
73672;SDS011;61972;19.480;-99.240;2022-12-07T08:52:35;9.48;;;4.90;;
73672;SDS011;61972;19.480;-99.240;2022-12-07T08:55:02;6.60;;;3.90;;
73672;SDS011;61972;19.480;-99.240;2022-12-07T08:57:30;8.38;;;4.65;;
73672;SDS011;61972;19.480;-99.240;2022-12-07T08:59:59;6.88;;;4.35;;
73672;SDS011;61972;19.480;-99.240;2022-12-07T09:02:25;8.63;;;4.43;;
73672;SDS011;61972;19.480;-99.240;2022-12-07T09:04:52;8.18;;;4.75;;
73672;SDS011;61972;19.480;-99.240;2022-12-07T09:07:18;6.95;;;4.40;;
73672;SDS011;61972;19.480;-99.240;2022-12-07T09:09:44;11.15;;;4.53;;
73672;SDS011;61972;19.480;-99.240;2022-12-07T09:12:10;8.70;;;4.68;;
73672;SDS011;61972;19.480;-99.240;2022-12-07T09:14:36;7.87;;;4.10;;
73672;SDS011;61972;19.480;-99.240;2022-12-07T09:17:09;8.13;;;4.40;;
73672;SDS011;61972;19.480;-99.240;2022-12-07T09:19:36;7.32;;;4.45;;
73672;SDS011;61972;19.480;-99.240;2022-12-07T09:22:04;7.20;;;4.38;;
73672;SDS011;61972;19.480;-99.240;2022-12-07T09:24:31;6.82;;;4.20;;
73672;SDS011;61972;19.480;-99.240;2022-12-07T09:26:57;7.73;;;4.00;;
73672;SDS011;61972;19.480;-99.240;2022-12-07T09:29:24;9.02;;;4.60;;
73672;SDS011;61972;19.480;-99.240;2022-12-07T09:31:51;8.48;;;4.78;;
73672;SDS011;61972;19.480;-99.240;2022-12-07T09:34:17;10.68;;;4.38;;
73672;SDS011;61972;19.480;-99.240;2022-12-07T09:36:44;8.00;;;4.40;;
73672;SDS011;61972;19.480;-99.240;2022-12-07T09:39:10;7.13;;;4.37;;
73672;SDS011;61972;19.480;-99.240;2022-12-07T09:41:39;6.45;;;4.05;;
73672;SDS011;61972;19.480;-99.240;2022-12-07T09:44:14;9.50;;;4.82;;
73672;SDS011;61972;19.480;-99.240;2022-12-07T09:46:48;9.00;;;4.55;;
73672;SDS011;61972;19.480;-99.240;2022-12-07T09:49:22;7.40;;;4.40;;
73672;SDS011;61972;19.480;-99.240;2022-12-07T09:54:34;6.55;;;4.13;;
73672;SDS011;61972;19.480;-99.240;2022-12-07T09:57:06;7.53;;;4.18;;
73672;SDS011;61972;19.480;-99.240;2022-12-07T09:59:34;9.30;;;4.80;;
73672;SDS011;61972;19.480;-99.240;2022-12-07T10:02:16;6.93;;;4.40;;
73672;SDS011;61972;19.480;-99.240;2022-12-07T10:05:00;6.70;;;4.60;;
73672;SDS011;61972;19.480;-99.240;2022-12-07T10:07:26;7.43;;;4.68;;
73672;SDS011;61972;19.480;-99.240;2022-12-07T10:09:52;8.07;;;4.07;;
73672;SDS011;61972;19.480;-99.240;2022-12-07T10:12:19;9.50;;;4.43;;
73672;SDS011;61972;19.480;-99.240;2022-12-07T10:15:01;8.25;;;4.50;;
73672;SDS011;61972;19.480;-99.240;2022-12-07T10:25:24;6.88;;;4.30;;
73672;SDS011;61972;19.480;-99.240;2022-12-07T10:31:20;6.67;;;3.97;;
73672;SDS011;61972;19.480;-99.240;2022-12-07T10:33:38;7.57;;;4.60;;
73672;SDS011;61972;19.480;-99.240;2022-12-07T10:36:23;7.72;;;4.53;;
73672;SDS011;61972;19.480;-99.240;2022-12-07T10:39:00;7.30;;;4.18;;
73672;SDS011;61972;19.480;-99.240;2022-12-07T10:41:43;9.60;;;4.40;;
73672;SDS011;61972;19.480;-99.240;2022-12-07T10:44:21;7.00;;;4.30;;
73672;SDS011;61972;19.480;-99.240;2022-12-07T10:49:52;8.55;;;4.30;;
73672;SDS011;61972;19.480;-99.240;2022-12-07T10:59:01;9.23;;;5.13;;
73672;SDS011;61972;19.480;-99.240;2022-12-07T11:10:20;9.00;;;4.55;;
73672;SDS011;61972;19.480;-99.240;2022-12-07T11:13:05;7.47;;;4.83;;
73672;SDS011;61972;19.480;-99.240;2022-12-07T11:18:24;7.60;;;4.80;;
73672;SDS011;61972;19.480;-99.240;2022-12-07T11:29:04;8.73;;;4.75;;
73672;SDS011;61972;19.480;-99.240;2022-12-07T11:34:36;7.82;;;4.88;;
73672;SDS011;61972;19.480;-99.240;2022-12-07T11:37:13;8.48;;;4.85;;
73672;SDS011;61972;19.480;-99.240;2022-12-07T11:39:46;8.37;;;5.10;;
73672;SDS011;61972;19.480;-99.240;2022-12-07T11:45:37;9.23;;;4.82;;
73672;SDS011;61972;19.480;-99.240;2022-12-07T11:50:40;6.85;;;4.80;;
73672;SDS011;61972;19.480;-99.240;2022-12-07T11:53:13;7.40;;;5.30;;
73672;SDS011;61972;19.480;-99.240;2022-12-07T11:58:23;8.55;;;5.00;;
73672;SDS011;61972;19.480;-99.240;2022-12-07T12:00:55;8.85;;;5.32;;
73672;SDS011;61972;19.480;-99.240;2022-12-07T12:03:33;9.25;;;5.07;;
73672;SDS011;61972;19.480;-99.240;2022-12-07T12:06:02;9.50;;;5.43;;
73672;SDS011;61972;19.480;-99.240;2022-12-07T12:08:33;8.18;;;5.45;;
73672;SDS011;61972;19.480;-99.240;2022-12-07T12:22:38;7.75;;;4.95;;
73672;SDS011;61972;19.480;-99.240;2022-12-07T12:31:38;9.63;;;5.35;;
73672;SDS011;61972;19.480;-99.240;2022-12-07T12:36:55;9.55;;;5.65;;
73672;SDS011;61972;19.480;-99.240;2022-12-07T12:39:21;10.30;;;5.43;;
73672;SDS011;61972;19.480;-99.240;2022-12-07T12:46:56;12.20;;;5.90;;
73672;SDS011;61972;19.480;-99.240;2022-12-07T12:56:50;10.02;;;5.82;;
73672;SDS011;61972;19.480;-99.240;2022-12-07T13:01:54;10.55;;;5.40;;
73672;SDS011;61972;19.480;-99.240;2022-12-07T13:04:27;9.57;;;5.72;;
73672;SDS011;61972;19.480;-99.240;2022-12-07T13:07:04;9.40;;;5.70;;
73672;SDS011;61972;19.480;-99.240;2022-12-07T13:09:34;10.20;;;5.63;;
73672;SDS011;61972;19.480;-99.240;2022-12-07T13:12:05;9.87;;;5.83;;
73672;SDS011;61972;19.480;-99.240;2022-12-07T13:17:11;10.27;;;5.20;;
73672;SDS011;61972;19.480;-99.240;2022-12-07T13:20:01;9.48;;;5.97;;
73672;SDS011;61972;19.480;-99.240;2022-12-07T13:25:09;10.87;;;5.67;;
73672;SDS011;61972;19.480;-99.240;2022-12-07T13:28:01;11.50;;;5.78;;
73672;SDS011;61972;19.480;-99.240;2022-12-07T13:30:32;9.75;;;5.70;;
73672;SDS011;61972;19.480;-99.240;2022-12-07T13:33:10;9.90;;;5.47;;
73672;SDS011;61972;19.480;-99.240;2022-12-07T13:35:37;9.30;;;5.32;;
73672;SDS011;61972;19.480;-99.240;2022-12-07T13:41:05;10.43;;;5.30;;
73672;SDS011;61972;19.480;-99.240;2022-12-07T13:43:53;11.27;;;5.47;;
73672;SDS011;61972;19.480;-99.240;2022-12-07T13:46:47;8.95;;;5.18;;
73672;SDS011;61972;19.480;-99.240;2022-12-07T13:49:24;9.88;;;5.75;;
73672;SDS011;61972;19.480;-99.240;2022-12-07T13:51:55;9.43;;;5.43;;
73672;SDS011;61972;19.480;-99.240;2022-12-07T13:55:16;12.20;;;5.53;;
73672;SDS011;61972;19.480;-99.240;2022-12-07T13:57:40;10.50;;;5.68;;
73672;SDS011;61972;19.480;-99.240;2022-12-07T14:00:14;8.90;;;5.32;;
73672;SDS011;61972;19.480;-99.240;2022-12-07T14:06:02;12.30;;;5.70;;
73672;SDS011;61972;19.480;-99.240;2022-12-07T14:08:31;8.52;;;5.53;;
73672;SDS011;61972;19.480;-99.240;2022-12-07T14:10:58;10.45;;;5.50;;
73672;SDS011;61972;19.480;-99.240;2022-12-07T14:13:30;10.55;;;5.75;;
73672;SDS011;61972;19.480;-99.240;2022-12-07T14:18:56;11.03;;;5.63;;
73672;SDS011;61972;19.480;-99.240;2022-12-07T14:21:25;8.75;;;5.28;;
73672;SDS011;61972;19.480;-99.240;2022-12-07T14:24:15;10.35;;;5.88;;
73672;SDS011;61972;19.480;-99.240;2022-12-07T14:26:48;10.13;;;5.82;;
73672;SDS011;61972;19.480;-99.240;2022-12-07T14:31:51;9.27;;;5.40;;
73672;SDS011;61972;19.480;-99.240;2022-12-07T14:34:21;13.73;;;5.70;;
73672;SDS011;61972;19.480;-99.240;2022-12-07T14:36:48;13.27;;;5.18;;
73672;SDS011;61972;19.480;-99.240;2022-12-07T14:39:14;15.43;;;5.82;;
73672;SDS011;61972;19.480;-99.240;2022-12-07T14:41:41;13.75;;;5.72;;
73672;SDS011;61972;19.480;-99.240;2022-12-07T14:44:16;12.77;;;5.17;;
73672;SDS011;61972;19.480;-99.240;2022-12-07T14:46:44;11.48;;;5.60;;
73672;SDS011;61972;19.480;-99.240;2022-12-07T14:49:11;13.60;;;5.72;;
73672;SDS011;61972;19.480;-99.240;2022-12-07T14:51:37;14.63;;;6.75;;
73672;SDS011;61972;19.480;-99.240;2022-12-07T14:54:06;19.55;;;6.32;;
73672;SDS011;61972;19.480;-99.240;2022-12-07T14:56:41;17.17;;;7.20;;
73672;SDS011;61972;19.480;-99.240;2022-12-07T14:59:09;17.48;;;7.70;;
73672;SDS011;61972;19.480;-99.240;2022-12-07T15:01:36;20.92;;;7.30;;
73672;SDS011;61972;19.480;-99.240;2022-12-07T15:04:02;19.13;;;7.53;;
73672;SDS011;61972;19.480;-99.240;2022-12-07T15:06:29;21.45;;;8.10;;
73672;SDS011;61972;19.480;-99.240;2022-12-07T15:08:55;20.33;;;8.60;;
73672;SDS011;61972;19.480;-99.240;2022-12-07T15:11:21;21.40;;;7.95;;
73672;SDS011;61972;19.480;-99.240;2022-12-07T15:13:47;21.35;;;9.18;;
73672;SDS011;61972;19.480;-99.240;2022-12-07T15:16:31;25.00;;;7.90;;
73672;SDS011;61972;19.480;-99.240;2022-12-07T15:18:57;20.83;;;7.82;;
73672;SDS011;61972;19.480;-99.240;2022-12-07T15:21:23;19.97;;;7.63;;
73672;SDS011;61972;19.480;-99.240;2022-12-07T15:23:50;19.77;;;7.70;;
73672;SDS011;61972;19.480;-99.240;2022-12-07T15:26:16;18.27;;;7.90;;
73672;SDS011;61972;19.480;-99.240;2022-12-07T15:28:42;19.52;;;8.18;;
73672;SDS011;61972;19.480;-99.240;2022-12-07T15:31:15;19.17;;;8.30;;
73672;SDS011;61972;19.480;-99.240;2022-12-07T15:33:44;19.90;;;8.10;;
73672;SDS011;61972;19.480;-99.240;2022-12-07T15:36:18;22.58;;;8.05;;
73672;SDS011;61972;19.480;-99.240;2022-12-07T15:38:46;17.70;;;7.90;;
73672;SDS011;61972;19.480;-99.240;2022-12-07T15:41:13;18.52;;;8.70;;
73672;SDS011;61972;19.480;-99.240;2022-12-07T15:43:39;15.13;;;7.40;;
73672;SDS011;61972;19.480;-99.240;2022-12-07T15:46:28;21.03;;;8.10;;
73672;SDS011;61972;19.480;-99.240;2022-12-07T15:48:55;16.02;;;8.07;;
73672;SDS011;61972;19.480;-99.240;2022-12-07T15:51:22;16.88;;;7.90;;
73672;SDS011;61972;19.480;-99.240;2022-12-07T15:53:48;20.23;;;9.30;;
73672;SDS011;61972;19.480;-99.240;2022-12-07T15:56:14;18.92;;;8.35;;
73672;SDS011;61972;19.480;-99.240;2022-12-07T15:58:40;17.63;;;9.10;;
73672;SDS011;61972;19.480;-99.240;2022-12-07T16:01:10;18.33;;;9.15;;
73672;SDS011;61972;19.480;-99.240;2022-12-07T16:03:40;19.42;;;9.52;;
73672;SDS011;61972;19.480;-99.240;2022-12-07T16:06:06;16.30;;;9.20;;
73672;SDS011;61972;19.480;-99.240;2022-12-07T16:08:33;20.30;;;9.23;;
73672;SDS011;61972;19.480;-99.240;2022-12-07T16:10:59;23.57;;;9.50;;
73672;SDS011;61972;19.480;-99.240;2022-12-07T16:13:25;18.35;;;9.80;;
73672;SDS011;61972;19.480;-99.240;2022-12-07T16:15:51;19.02;;;9.43;;
73672;SDS011;61972;19.480;-99.240;2022-12-07T16:18:17;18.83;;;9.15;;
73672;SDS011;61972;19.480;-99.240;2022-12-07T16:20:44;18.17;;;10.25;;
73672;SDS011;61972;19.480;-99.240;2022-12-07T16:23:14;19.73;;;9.87;;
73672;SDS011;61972;19.480;-99.240;2022-12-07T16:25:40;16.92;;;10.43;;
73672;SDS011;61972;19.480;-99.240;2022-12-07T16:28:07;20.90;;;10.13;;
73672;SDS011;61972;19.480;-99.240;2022-12-07T16:30:33;14.82;;;9.40;;
73672;SDS011;61972;19.480;-99.240;2022-12-07T16:32:59;23.02;;;9.98;;
73672;SDS011;61972;19.480;-99.240;2022-12-07T16:35:25;21.37;;;10.37;;
73672;SDS011;61972;19.480;-99.240;2022-12-07T16:37:51;15.52;;;9.25;;
73672;SDS011;61972;19.480;-99.240;2022-12-07T16:40:18;17.52;;;8.90;;
73672;SDS011;61972;19.480;-99.240;2022-12-07T16:42:44;16.65;;;9.50;;
73672;SDS011;61972;19.480;-99.240;2022-12-07T16:45:10;18.40;;;10.10;;
73672;SDS011;61972;19.480;-99.240;2022-12-07T16:47:39;15.67;;;10.23;;